sensor_id;sensor_type;location;lat;lon;timestamp;pressure;altitude;pressure_sealevel;temperature;humidity
54882;BME280;40775;51.448;4.742;2023-04-22T00:00:13;100756.09;;;9.40;100.00
54882;BME280;40775;51.448;4.742;2023-04-22T00:02:40;100762.03;;;9.33;100.00
54882;BME280;40775;51.448;4.742;2023-04-22T00:05:08;100757.78;;;9.38;100.00
54882;BME280;40775;51.448;4.742;2023-04-22T00:07:40;100754.97;;;9.30;100.00
54882;BME280;40775;51.448;4.742;2023-04-22T00:10:10;100755.72;;;9.25;100.00
54882;BME280;40775;51.448;4.742;2023-04-22T00:12:37;100753.84;;;9.19;100.00
54882;BME280;40775;51.448;4.742;2023-04-22T00:15:05;100758.00;;;9.11;100.00
54882;BME280;40775;51.448;4.742;2023-04-22T00:17:32;100756.09;;;9.04;100.00
54882;BME280;40775;51.448;4.742;2023-04-22T00:20:00;100754.22;;;9.00;100.00
54882;BME280;40775;51.448;4.742;2023-04-22T00:22:27;100747.94;;;8.93;100.00
54882;BME280;40775;51.448;4.742;2023-04-22T00:24:54;100752.22;;;8.90;100.00
54882;BME280;40775;51.448;4.742;2023-04-22T00:27:21;100744.78;;;8.72;100.00
54882;BME280;40775;51.448;4.742;2023-04-22T00:29:48;100754.16;;;8.64;100.00
54882;BME280;40775;51.448;4.742;2023-04-22T00:32:15;100743.53;;;8.58;100.00
54882;BME280;40775;51.448;4.742;2023-04-22T00:34:42;100747.84;;;8.56;100.00
54882;BME280;40775;51.448;4.742;2023-04-22T00:37:09;100747.81;;;8.54;100.00
54882;BME280;40775;51.448;4.742;2023-04-22T00:39:36;100742.53;;;8.53;100.00
54882;BME280;40775;51.448;4.742;2023-04-22T00:42:06;100744.34;;;8.55;100.00
54882;BME280;40775;51.448;4.742;2023-04-22T00:44:35;100737.31;;;8.53;100.00
54882;BME280;40775;51.448;4.742;2023-04-22T00:47:02;100742.50;;;8.51;100.00
54882;BME280;40775;51.448;4.742;2023-04-22T00:49:30;100747.09;;;8.60;100.00
54882;BME280;40775;51.448;4.742;2023-04-22T00:51:58;100744.47;;;8.60;100.00
54882;BME280;40775;51.448;4.742;2023-04-22T00:54:25;100743.69;;;8.64;100.00
54882;BME280;40775;51.448;4.742;2023-04-22T00:56:52;100744.53;;;8.63;100.00
54882;BME280;40775;51.448;4.742;2023-04-22T00:59:20;100743.53;;;8.58;100.00
54882;BME280;40775;51.448;4.742;2023-04-22T01:01:48;100743.59;;;8.59;100.00
54882;BME280;40775;51.448;4.742;2023-04-22T01:04:16;100733.00;;;8.55;100.00
54882;BME280;40775;51.448;4.742;2023-04-22T01:06:44;100737.16;;;8.48;100.00
54882;BME280;40775;51.448;4.742;2023-04-22T01:09:12;100725.97;;;8.52;100.00
54882;BME280;40775;51.448;4.742;2023-04-22T01:11:40;100730.88;;;8.42;100.00
54882;BME280;40775;51.448;4.742;2023-04-22T01:14:07;100733.47;;;8.40;100.00
54882;BME280;40775;51.448;4.742;2023-04-22T01:16:35;100741.00;;;8.29;100.00
54882;BME280;40775;51.448;4.742;2023-04-22T01:19:05;100728.75;;;8.28;100.00
54882;BME280;40775;51.448;4.742;2023-04-22T01:21:34;100735.41;;;8.17;100.00
54882;BME280;40775;51.448;4.742;2023-04-22T01:24:01;100739.06;;;8.22;100.00
54882;BME280;40775;51.448;4.742;2023-04-22T01:26:28;100732.19;;;8.26;100.00
54882;BME280;40775;51.448;4.742;2023-04-22T01:28:55;100732.97;;;8.23;100.00
54882;BME280;40775;51.448;4.742;2023-04-22T01:31:23;100726.88;;;8.23;100.00
54882;BME280;40775;51.448;4.742;2023-04-22T01:33:50;100730.44;;;8.26;100.00
54882;BME280;40775;51.448;4.742;2023-04-22T01:36:17;100725.19;;;8.25;100.00
54882;BME280;40775;51.448;4.742;2023-04-22T01:38:44;100730.44;;;8.26;100.00
54882;BME280;40775;51.448;4.742;2023-04-22T01:41:12;100727.78;;;8.25;100.00
54882;BME280;40775;51.448;4.742;2023-04-22T01:43:41;100724.25;;;8.23;100.00
54882;BME280;40775;51.448;4.742;2023-04-22T01:46:08;100732.03;;;8.21;100.00
54882;BME280;40775;51.448;4.742;2023-04-22T01:48:37;100733.81;;;8.22;100.00
54882;BME280;40775;51.448;4.742;2023-04-22T01:51:04;100721.47;;;8.18;100.00
54882;BME280;40775;51.448;4.742;2023-04-22T01:53:31;100726.66;;;8.17;100.00
54882;BME280;40775;51.448;4.742;2023-04-22T01:55:59;100722.53;;;8.23;100.00
54882;BME280;40775;51.448;4.742;2023-04-22T01:58:28;100720.09;;;8.31;100.00
54882;BME280;40775;51.448;4.742;2023-04-22T02:00:55;100720.16;;;8.32;100.00
54882;BME280;40775;51.448;4.742;2023-04-22T02:03:22;100714.91;;;8.32;100.00
54882;BME280;40775;51.448;4.742;2023-04-22T02:05:50;100723.56;;;8.30;100.00
54882;BME280;40775;51.448;4.742;2023-04-22T02:08:17;100727.94;;;8.31;100.00
54882;BME280;40775;51.448;4.742;2023-04-22T02:10:44;100727.91;;;8.29;100.00
54882;BME280;40775;51.448;4.742;2023-04-22T02:13:11;100722.72;;;8.31;100.00
54882;BME280;40775;51.448;4.742;2023-04-22T02:15:38;100717.28;;;8.23;100.00
54882;BME280;40775;51.448;4.742;2023-04-22T02:18:07;100721.47;;;8.18;100.00
54882;BME280;40775;51.448;4.742;2023-04-22T02:20:36;100712.75;;;8.18;100.00
54882;BME280;40775;51.448;4.742;2023-04-22T02:23:03;100711.09;;;8.21;100.00
54882;BME280;40775;51.448;4.742;2023-04-22T02:25:30;100704.06;;;8.19;100.00
54882;BME280;40775;51.448;4.742;2023-04-22T02:27:57;100716.25;;;8.18;100.00
54882;BME280;40775;51.448;4.742;2023-04-22T02:30:24;100717.84;;;8.13;100.00
54882;BME280;40775;51.448;4.742;2023-04-22T02:32:51;100718.03;;;8.19;100.00
54882;BME280;40775;51.448;4.742;2023-04-22T02:35:18;100722.41;;;8.20;100.00
54882;BME280;40775;51.448;4.742;2023-04-22T02:37:46;100709.13;;;8.13;100.00
54882;BME280;40775;51.448;4.742;2023-04-22T02:40:13;100713.72;;;8.21;100.00
54882;BME280;40775;51.448;4.742;2023-04-22T02:42:40;100708.56;;;8.23;100.00
54882;BME280;40775;51.448;4.742;2023-04-22T02:45:07;100700.75;;;8.24;100.00
54882;BME280;40775;51.448;4.742;2023-04-22T02:47:34;100704.09;;;8.20;100.00
54882;BME280;40775;51.448;4.742;2023-04-22T02:50:02;100706.00;;;8.24;100.00
54882;BME280;40775;51.448;4.742;2023-04-22T02:52:29;100712.06;;;8.23;100.00
54882;BME280;40775;51.448;4.742;2023-04-22T02:54:56;100702.44;;;8.22;100.00
54882;BME280;40775;51.448;4.742;2023-04-22T02:57:23;100698.97;;;8.23;100.00
54882;BME280;40775;51.448;4.742;2023-04-22T02:59:50;100700.84;;;8.27;100.00
54882;BME280;40775;51.448;4.742;2023-04-22T03:02:17;100699.06;;;8.26;100.00
54882;BME280;40775;51.448;4.742;2023-04-22T03:04:44;100696.38;;;8.23;100.00
54882;BME280;40775;51.448;4.742;2023-04-22T03:07:11;100698.88;;;8.20;100.00
54882;BME280;40775;51.448;4.742;2023-04-22T03:09:38;100697.09;;;8.19;100.00
54882;BME280;40775;51.448;4.742;2023-04-22T03:12:06;100690.88;;;8.14;100.00
54882;BME280;40775;51.448;4.742;2023-04-22T03:14:33;100686.44;;;8.12;100.00
54882;BME280;40775;51.448;4.742;2023-04-22T03:17:00;100684.78;;;8.15;100.00
54882;BME280;40775;51.448;4.742;2023-04-22T03:19:28;100684.00;;;8.18;100.00
54882;BME280;40775;51.448;4.742;2023-04-22T03:21:55;100682.34;;;8.21;100.00
54882;BME280;40775;51.448;4.742;2023-04-22T03:24:23;100679.84;;;8.24;100.00
54882;BME280;40775;51.448;4.742;2023-04-22T03:26:50;100677.03;;;8.18;100.00
54882;BME280;40775;51.448;4.742;2023-04-22T03:29:17;100673.59;;;8.21;100.00
54882;BME280;40775;51.448;4.742;2023-04-22T03:31:44;100667.69;;;8.26;100.00
54882;BME280;40775;51.448;4.742;2023-04-22T03:34:11;100664.16;;;8.24;100.00
54882;BME280;40775;51.448;4.742;2023-04-22T03:36:38;100663.97;;;8.18;100.00
54882;BME280;40775;51.448;4.742;2023-04-22T03:39:05;100657.75;;;8.15;100.00
54882;BME280;40775;51.448;4.742;2023-04-22T03:41:32;100653.34;;;8.12;100.00
54882;BME280;40775;51.448;4.742;2023-04-22T03:43:59;100659.38;;;8.10;100.00
54882;BME280;40775;51.448;4.742;2023-04-22T03:46:27;100648.09;;;8.12;100.00
54882;BME280;40775;51.448;4.742;2023-04-22T03:48:55;100639.41;;;8.13;100.00
54882;BME280;40775;51.448;4.742;2023-04-22T03:51:21;100649.88;;;8.13;100.00
54882;BME280;40775;51.448;4.742;2023-04-22T03:53:48;100648.09;;;8.12;100.00
54882;BME280;40775;51.448;4.742;2023-04-22T03:56:15;100653.34;;;8.12;100.00
54882;BME280;40775;51.448;4.742;2023-04-22T03:58:43;100650.91;;;8.20;100.00
54882;BME280;40775;51.448;4.742;2023-04-22T04:01:10;100634.47;;;8.22;100.00
54882;BME280;40775;51.448;4.742;2023-04-22T04:03:37;100642.41;;;8.27;100.00
54882;BME280;40775;51.448;4.742;2023-04-22T04:06:04;100647.59;;;8.25;100.00
54882;BME280;40775;51.448;4.742;2023-04-22T04:08:31;100638.00;;;8.24;100.00
54882;BME280;40775;51.448;4.742;2023-04-22T04:10:58;100637.19;;;8.27;100.00
54882;BME280;40775;51.448;4.742;2023-04-22T04:13:25;100623.19;;;8.25;100.00
54882;BME280;40775;51.448;4.742;2023-04-22T04:15:58;100624.06;;;8.25;100.00
54882;BME280;40775;51.448;4.742;2023-04-22T04:18:26;100626.47;;;8.18;100.00
54882;BME280;40775;51.448;4.742;2023-04-22T04:20:56;100632.50;;;8.15;100.00
54882;BME280;40775;51.448;4.742;2023-04-22T04:23:23;100628.16;;;8.16;100.00
54882;BME280;40775;51.448;4.742;2023-04-22T04:25:50;100621.97;;;8.12;100.00
54882;BME280;40775;51.448;4.742;2023-04-22T04:28:18;100625.66;;;8.20;100.00
54882;BME280;40775;51.448;4.742;2023-04-22T04:30:56;100620.56;;;8.25;100.00
54882;BME280;40775;51.448;4.742;2023-04-22T04:33:30;100629.31;;;8.25;100.00
54882;BME280;40775;51.448;4.742;2023-04-22T04:35:59;100630.19;;;8.26;100.00
54882;BME280;40775;51.448;4.742;2023-04-22T04:38:28;100632.75;;;8.24;100.00
54882;BME280;40775;51.448;4.742;2023-04-22T04:40:55;100618.00;;;8.26;100.00
54882;BME280;40775;51.448;4.742;2023-04-22T04:43:22;100626.00;;;8.32;100.00
54882;BME280;40775;51.448;4.742;2023-04-22T04:45:52;100629.59;;;8.36;100.00
54882;BME280;40775;51.448;4.742;2023-04-22T04:48:19;100628.72;;;8.35;100.00
54882;BME280;40775;51.448;4.742;2023-04-22T04:50:47;100625.22;;;8.35;100.00
54882;BME280;40775;51.448;4.742;2023-04-22T04:53:17;100629.59;;;8.36;100.00
54882;BME280;40775;51.448;4.742;2023-04-22T04:55:45;100622.50;;;8.32;100.00
54882;BME280;40775;51.448;4.742;2023-04-22T04:58:13;100624.25;;;8.33;100.00
54882;BME280;40775;51.448;4.742;2023-04-22T05:00:40;100623.56;;;8.39;100.00
54882;BME280;40775;51.448;4.742;2023-04-22T05:03:07;100623.56;;;8.39;100.00
54882;BME280;40775;51.448;4.742;2023-04-22T05:05:35;100628.75;;;8.37;100.00
54882;BME280;40775;51.448;4.742;2023-04-22T05:08:02;100622.69;;;8.38;100.00
54882;BME280;40775;51.448;4.742;2023-04-22T05:10:29;100619.22;;;8.39;100.00
54882;BME280;40775;51.448;4.742;2023-04-22T05:12:56;100622.72;;;8.40;100.00
54882;BME280;40775;51.448;4.742;2023-04-22T05:15:24;100618.34;;;8.39;100.00
54882;BME280;40775;51.448;4.742;2023-04-22T05:17:52;100621.06;;;8.43;100.00
54882;BME280;40775;51.448;4.742;2023-04-22T05:20:19;100619.31;;;8.44;100.00
54882;BME280;40775;51.448;4.742;2023-04-22T05:22:47;100618.50;;;8.46;100.00
54882;BME280;40775;51.448;4.742;2023-04-22T05:25:14;100627.34;;;8.50;100.00
54882;BME280;40775;51.448;4.742;2023-04-22T05:27:41;100621.28;;;8.51;100.00
54882;BME280;40775;51.448;4.742;2023-04-22T05:30:09;100631.00;;;8.56;100.00
54882;BME280;40775;51.448;4.742;2023-04-22T05:32:36;100626.78;;;8.63;100.00
54882;BME280;40775;51.448;4.742;2023-04-22T05:35:04;100625.91;;;8.62;100.00
54882;BME280;40775;51.448;4.742;2023-04-22T05:37:31;100627.78;;;8.68;100.00
54882;BME280;40775;51.448;4.742;2023-04-22T05:39:59;100630.47;;;8.71;100.00
54882;BME280;40775;51.448;4.742;2023-04-22T05:42:26;100622.66;;;8.73;100.00
54882;BME280;40775;51.448;4.742;2023-04-22T05:44:53;100626.34;;;8.79;100.00
54882;BME280;40775;51.448;4.742;2023-04-22T05:47:20;100632.50;;;8.81;100.00
54882;BME280;40775;51.448;4.742;2023-04-22T05:49:48;100622.00;;;8.81;100.00
54882;BME280;40775;51.448;4.742;2023-04-22T05:52:16;100627.41;;;8.89;100.00
54882;BME280;40775;51.448;4.742;2023-04-22T05:54:45;100621.41;;;8.93;100.00
54882;BME280;40775;51.448;4.742;2023-04-22T05:57:14;100629.38;;;8.97;100.00
54882;BME280;40775;51.448;4.742;2023-04-22T05:59:41;100625.06;;;9.01;100.00
54882;BME280;40775;51.448;4.742;2023-04-22T06:02:09;100617.19;;;8.99;100.00
54882;BME280;40775;51.448;4.742;2023-04-22T06:04:36;100609.31;;;8.98;100.00
54882;BME280;40775;51.448;4.742;2023-04-22T06:07:04;100615.63;;;9.06;100.00
54882;BME280;40775;51.448;4.742;2023-04-22T06:09:31;100615.75;;;9.12;100.00
54882;BME280;40775;51.448;4.742;2023-04-22T06:11:58;100613.22;;;9.17;100.00
54882;BME280;40775;51.448;4.742;2023-04-22T06:14:25;100622.13;;;9.25;100.00
54882;BME280;40775;51.448;4.742;2023-04-22T06:16:53;100616.19;;;9.32;100.00
54882;BME280;40775;51.448;4.742;2023-04-22T06:19:20;100609.25;;;9.34;100.00
54882;BME280;40775;51.448;4.742;2023-04-22T06:21:47;100613.75;;;9.41;100.00
54882;BME280;40775;51.448;4.742;2023-04-22T06:24:14;100606.81;;;9.43;100.00
54882;BME280;40775;51.448;4.742;2023-04-22T06:26:41;100607.72;;;9.45;100.00
54882;BME280;40775;51.448;4.742;2023-04-22T06:29:08;100602.59;;;9.51;100.00
54882;BME280;40775;51.448;4.742;2023-04-22T06:31:35;100593.03;;;9.53;100.00
54882;BME280;40775;51.448;4.742;2023-04-22T06:34:02;100604.69;;;9.68;100.00
54882;BME280;40775;51.448;4.742;2023-04-22T06:36:31;100596.09;;;9.75;100.00
54882;BME280;40775;51.448;4.742;2023-04-22T06:39:03;100590.03;;;9.77;100.00
54882;BME280;40775;51.448;4.742;2023-04-22T06:41:31;100580.50;;;9.82;100.00
54882;BME280;40775;51.448;4.742;2023-04-22T06:43:59;100588.59;;;9.93;100.00
54882;BME280;40775;51.448;4.742;2023-04-22T06:46:26;100581.72;;;10.00;100.00
54882;BME280;40775;51.448;4.742;2023-04-22T06:48:53;100592.41;;;10.12;100.00
54882;BME280;40775;51.448;4.742;2023-04-22T06:51:20;100593.44;;;10.18;100.00
54882;BME280;40775;51.448;4.742;2023-04-22T06:53:47;100597.03;;;10.22;100.00
54882;BME280;40775;51.448;4.742;2023-04-22T06:56:17;100601.50;;;10.28;100.00
54882;BME280;40775;51.448;4.742;2023-04-22T06:58:45;100606.88;;;10.37;100.00
54882;BME280;40775;51.448;4.742;2023-04-22T07:01:12;100621.91;;;10.44;100.00
54882;BME280;40775;51.448;4.742;2023-04-22T07:03:39;100613.38;;;10.57;100.00
54882;BME280;40775;51.448;4.742;2023-04-22T07:06:06;100599.47;;;10.64;100.00
54882;BME280;40775;51.448;4.742;2023-04-22T07:08:34;100593.38;;;10.67;100.00
54882;BME280;40775;51.448;4.742;2023-04-22T07:11:01;100594.19;;;10.63;100.00
54882;BME280;40775;51.448;4.742;2023-04-22T07:13:28;100583.31;;;10.94;100.00
54882;BME280;40775;51.448;4.742;2023-04-22T07:16:03;100580.84;;;11.05;100.00
54882;BME280;40775;51.448;4.742;2023-04-22T07:18:30;100582.63;;;11.07;100.00
54882;BME280;40775;51.448;4.742;2023-04-22T07:20:57;100578.66;;;11.38;100.00
54882;BME280;40775;51.448;4.742;2023-04-22T07:23:26;100581.31;;;11.41;100.00
54882;BME280;40775;51.448;4.742;2023-04-22T07:25:53;100585.75;;;11.44;100.00
54882;BME280;40775;51.448;4.742;2023-04-22T07:28:20;100600.09;;;11.72;100.00
54882;BME280;40775;51.448;4.742;2023-04-22T07:30:47;100586.28;;;11.85;100.00
54882;BME280;40775;51.448;4.742;2023-04-22T07:33:14;100572.47;;;12.07;100.00
54882;BME280;40775;51.448;4.742;2023-04-22T07:35:41;100567.25;;;12.11;100.00
54882;BME280;40775;51.448;4.742;2023-04-22T07:38:08;100570.72;;;12.08;100.00
54882;BME280;40775;51.448;4.742;2023-04-22T07:40:37;100558.59;;;12.27;100.00
54882;BME280;40775;51.448;4.742;2023-04-22T07:43:07;100575.25;;;12.23;100.00
54882;BME280;40775;51.448;4.742;2023-04-22T07:45:34;100557.69;;;12.22;100.00
54882;BME280;40775;51.448;4.742;2023-04-22T07:48:04;100559.50;;;12.29;100.00
54882;BME280;40775;51.448;4.742;2023-04-22T07:50:35;100558.81;;;12.51;100.00
54882;BME280;40775;51.448;4.742;2023-04-22T07:53:04;100563.34;;;12.71;100.00
54882;BME280;40775;51.448;4.742;2023-04-22T07:55:33;100561.66;;;12.80;100.00
54882;BME280;40775;51.448;4.742;2023-04-22T07:58:00;100558.22;;;12.89;100.00
54882;BME280;40775;51.448;4.742;2023-04-22T08:00:35;100552.91;;;12.87;100.00
54882;BME280;40775;51.448;4.742;2023-04-22T08:03:03;100550.41;;;13.06;100.00
54882;BME280;40775;51.448;4.742;2023-04-22T08:05:30;100549.53;;;13.08;100.00
54882;BME280;40775;51.448;4.742;2023-04-22T08:08:00;100549.66;;;13.23;100.00
54882;BME280;40775;51.448;4.742;2023-04-22T08:10:32;100547.91;;;13.30;100.00
54882;BME280;40775;51.448;4.742;2023-04-22T08:13:07;100540.03;;;13.41;100.00
54882;BME280;40775;51.448;4.742;2023-04-22T08:15:34;100540.09;;;13.54;100.00
54882;BME280;40775;51.448;4.742;2023-04-22T08:18:01;100536.59;;;13.51;100.00
54882;BME280;40775;51.448;4.742;2023-04-22T08:20:31;100532.19;;;13.50;100.00
54882;BME280;40775;51.448;4.742;2023-04-22T08:22:58;100531.34;;;13.65;100.00
54882;BME280;40775;51.448;4.742;2023-04-22T08:25:29;100516.44;;;13.89;100.00
54882;BME280;40775;51.448;4.742;2023-04-22T08:27:57;100512.06;;;13.98;100.00
54882;BME280;40775;51.448;4.742;2023-04-22T08:30:24;100488.28;;;13.95;100.00
54882;BME280;40775;51.448;4.742;2023-04-22T08:32:51;100481.25;;;13.97;100.00
54882;BME280;40775;51.448;4.742;2023-04-22T08:35:21;100471.59;;;14.08;100.00
54882;BME280;40775;51.448;4.742;2023-04-22T08:37:48;100446.97;;;14.10;100.00
54882;BME280;40775;51.448;4.742;2023-04-22T08:40:15;100435.50;;;14.23;100.00
54882;BME280;40775;51.448;4.742;2023-04-22T08:42:43;100420.56;;;14.29;100.00
54882;BME280;40775;51.448;4.742;2023-04-22T08:45:12;100419.66;;;14.43;100.00
54882;BME280;40775;51.448;4.742;2023-04-22T08:47:40;100421.41;;;14.55;100.00
54882;BME280;40775;51.448;4.742;2023-04-22T08:50:08;100450.47;;;14.60;100.00
54882;BME280;40775;51.448;4.742;2023-04-22T08:52:36;100482.09;;;14.87;100.00
54882;BME280;40775;51.448;4.742;2023-04-22T08:55:04;100500.50;;;15.14;100.00
54882;BME280;40775;51.448;4.742;2023-04-22T08:57:32;100495.97;;;15.33;100.00
54882;BME280;40775;51.448;4.742;2023-04-22T08:59:59;100487.19;;;15.31;100.00
54882;BME280;40775;51.448;4.742;2023-04-22T09:02:28;100486.25;;;15.44;100.00
54882;BME280;40775;51.448;4.742;2023-04-22T09:05:01;100483.53;;;15.58;100.00
54882;BME280;40775;51.448;4.742;2023-04-22T09:07:31;100493.13;;;15.77;100.00
54882;BME280;40775;51.448;4.742;2023-04-22T09:10:00;100492.97;;;16.00;100.00
54882;BME280;40775;51.448;4.742;2023-04-22T09:12:28;100489.34;;;16.14;100.00
54882;BME280;40775;51.448;4.742;2023-04-22T09:14:55;100484.91;;;16.14;100.00
54882;BME280;40775;51.448;4.742;2023-04-22T09:17:35;100483.09;;;16.24;100.00
54882;BME280;40775;51.448;4.742;2023-04-22T09:20:06;100476.75;;;16.38;100.00
54882;BME280;40775;51.448;4.742;2023-04-22T09:22:48;100482.03;;;16.45;100.00
54882;BME280;40775;51.448;4.742;2023-04-22T09:27:57;100490.66;;;16.66;100.00
54882;BME280;40775;51.448;4.742;2023-04-22T09:30:34;100491.25;;;16.93;100.00
54882;BME280;40775;51.448;4.742;2023-04-22T09:33:06;100478.81;;;16.99;100.00
54882;BME280;40775;51.448;4.742;2023-04-22T09:35:35;100475.25;;;17.02;100.00
54882;BME280;40775;51.448;4.742;2023-04-22T09:38:06;100475.84;;;17.24;100.00
54882;BME280;40775;51.448;4.742;2023-04-22T09:40:40;100479.53;;;17.14;100.00
54882;BME280;40775;51.448;4.742;2023-04-22T09:43:10;100491.19;;;17.01;100.00
54882;BME280;40775;51.448;4.742;2023-04-22T09:45:41;100497.94;;;17.24;100.00
54882;BME280;40775;51.448;4.742;2023-04-22T09:48:13;100495.28;;;17.27;100.00
54882;BME280;40775;51.448;4.742;2023-04-22T09:50:47;100481.06;;;17.33;100.00
54882;BME280;40775;51.448;4.742;2023-04-22T09:53:20;100489.91;;;17.32;100.00
54882;BME280;40775;51.448;4.742;2023-04-22T09:55:53;100482.66;;;17.45;100.00
54882;BME280;40775;51.448;4.742;2023-04-22T09:58:24;100480.97;;;17.39;100.00
54882;BME280;40775;51.448;4.742;2023-04-22T10:00:56;100477.16;;;17.58;100.00
54882;BME280;40775;51.448;4.742;2023-04-22T10:03:23;100469.13;;;17.63;100.00
54882;BME280;40775;51.448;4.742;2023-04-22T10:05:50;100455.03;;;17.59;100.00
54882;BME280;40775;51.448;4.742;2023-04-22T10:08:20;100456.78;;;17.60;100.00
54882;BME280;40775;51.448;4.742;2023-04-22T10:10:47;100463.75;;;17.69;100.00
54882;BME280;40775;51.448;4.742;2023-04-22T10:13:14;100463.75;;;17.69;100.00
54882;BME280;40775;51.448;4.742;2023-04-22T10:15:50;100462.91;;;17.66;100.00
54882;BME280;40775;51.448;4.742;2023-04-22T10:18:25;100458.41;;;17.72;100.00
54882;BME280;40775;51.448;4.742;2023-04-22T10:20:55;100466.44;;;17.68;100.00
54882;BME280;40775;51.448;4.742;2023-04-22T10:23:24;100459.28;;;17.73;100.00
54882;BME280;40775;51.448;4.742;2023-04-22T10:25:59;100453.16;;;17.68;100.00
54882;BME280;40775;51.448;4.742;2023-04-22T10:28:28;100452.31;;;17.64;100.00
54882;BME280;40775;51.448;4.742;2023-04-22T10:30:56;100453.22;;;17.61;100.00
54882;BME280;40775;51.448;4.742;2023-04-22T10:38:43;100487.94;;;17.46;100.00
54882;BME280;40775;51.448;4.742;2023-04-22T10:41:32;100520.03;;;17.25;100.00
54882;BME280;40775;51.448;4.742;2023-04-22T10:44:07;100527.41;;;17.02;100.00
54882;BME280;40775;51.448;4.742;2023-04-22T10:49:09;100528.31;;;16.97;100.00
54882;BME280;40775;51.448;4.742;2023-04-22T10:51:56;100531.84;;;16.98;100.00
54882;BME280;40775;51.448;4.742;2023-04-22T10:59:34;100524.19;;;16.72;100.00
54882;BME280;40775;51.448;4.742;2023-04-22T11:02:08;100526.84;;;16.72;100.00
54882;BME280;40775;51.448;4.742;2023-04-22T11:04:35;100526.97;;;16.55;100.00
54882;BME280;40775;51.448;4.742;2023-04-22T11:15:18;100541.41;;;16.13;100.00
54882;BME280;40775;51.448;4.742;2023-04-22T11:17:53;100521.13;;;16.14;100.00
54882;BME280;40775;51.448;4.742;2023-04-22T11:20:22;100532.63;;;16.11;100.00
54882;BME280;40775;51.448;4.742;2023-04-22T11:22:55;100527.38;;;16.05;100.00
54882;BME280;40775;51.448;4.742;2023-04-22T11:25:24;100530.06;;;15.99;100.00
54882;BME280;40775;51.448;4.742;2023-04-22T11:27:52;100521.25;;;15.95;100.00
54882;BME280;40775;51.448;4.742;2023-04-22T11:30:27;100528.34;;;15.93;100.00
54882;BME280;40775;51.448;4.742;2023-04-22T11:32:58;100509.91;;;15.78;100.00
54882;BME280;40775;51.448;4.742;2023-04-22T11:35:32;100521.41;;;15.74;100.00
54882;BME280;40775;51.448;4.742;2023-04-22T11:38:04;100517.88;;;15.72;100.00
54882;BME280;40775;51.448;4.742;2023-04-22T11:40:41;100508.22;;;15.60;100.00
54882;BME280;40775;51.448;4.742;2023-04-22T11:43:12;100509.25;;;15.29;100.00
54882;BME280;40775;51.448;4.742;2023-04-22T11:45:39;100514.44;;;15.47;100.00
54882;BME280;40775;51.448;4.742;2023-04-22T11:48:09;100514.44;;;15.47;100.00
54882;BME280;40775;51.448;4.742;2023-04-22T11:50:40;100522.44;;;15.38;100.00
54882;BME280;40775;51.448;4.742;2023-04-22T11:53:22;100520.69;;;15.37;100.00
54882;BME280;40775;51.448;4.742;2023-04-22T11:55:50;100531.31;;;15.20;100.00
54882;BME280;40775;51.448;4.742;2023-04-22T11:58:23;100523.44;;;15.09;100.00
54882;BME280;40775;51.448;4.742;2023-04-22T12:00:53;100539.28;;;15.12;100.00
54882;BME280;40775;51.448;4.742;2023-04-22T12:03:23;100525.16;;;15.20;100.00
54882;BME280;40775;51.448;4.742;2023-04-22T12:05:59;100521.66;;;15.10;100.00
54882;BME280;40775;51.448;4.742;2023-04-22T12:08:34;100519.97;;;14.89;100.00
54882;BME280;40775;51.448;4.742;2023-04-22T12:11:12;100529.63;;;14.98;100.00
54882;BME280;40775;51.448;4.742;2023-04-22T12:13:42;100527.84;;;15.01;100.00
54882;BME280;40775;51.448;4.742;2023-04-22T12:16:15;100535.84;;;14.83;100.00
54882;BME280;40775;51.448;4.742;2023-04-22T12:18:50;100530.53;;;14.89;100.00
54882;BME280;40775;51.448;4.742;2023-04-22T12:21:25;100546.41;;;14.80;100.00
54882;BME280;40775;51.448;4.742;2023-04-22T12:24:02;100542.88;;;14.72;100.00
54882;BME280;40775;51.448;4.742;2023-04-22T12:26:33;100536.72;;;14.68;100.00
54882;BME280;40775;51.448;4.742;2023-04-22T12:29:01;100542.00;;;14.67;100.00
54882;BME280;40775;51.448;4.742;2023-04-22T12:31:28;100542.00;;;14.74;100.00
54882;BME280;40775;51.448;4.742;2023-04-22T12:33:55;100544.69;;;14.58;100.00
54882;BME280;40775;51.448;4.742;2023-04-22T12:36:23;100552.59;;;14.48;100.00
54882;BME280;40775;51.448;4.742;2023-04-22T12:38:50;100553.47;;;14.60;100.00
54882;BME280;40775;51.448;4.742;2023-04-22T12:41:18;100555.22;;;14.51;100.00
54882;BME280;40775;51.448;4.742;2023-04-22T12:43:45;100549.06;;;14.49;100.00
54882;BME280;40775;51.448;4.742;2023-04-22T12:46:12;100549.94;;;14.38;100.00
54882;BME280;40775;51.448;4.742;2023-04-22T12:48:39;100554.31;;;14.39;100.00
54882;BME280;40775;51.448;4.742;2023-04-22T12:51:08;100556.13;;;14.55;100.00
54882;BME280;40775;51.448;4.742;2023-04-22T12:53:35;100561.38;;;14.49;100.00
54882;BME280;40775;51.448;4.742;2023-04-22T12:56:02;100555.22;;;14.48;100.00
54882;BME280;40775;51.448;4.742;2023-04-22T12:58:29;100552.59;;;14.50;100.00
54882;BME280;40775;51.448;4.742;2023-04-22T13:00:56;100557.03;;;14.52;100.00
54882;BME280;40775;51.448;4.742;2023-04-22T13:03:23;100557.03;;;14.52;100.00
54882;BME280;40775;51.448;4.742;2023-04-22T13:05:51;100562.28;;;14.59;100.00
54882;BME280;40775;51.448;4.742;2023-04-22T13:08:18;100555.25;;;14.53;100.00
54882;BME280;40775;51.448;4.742;2023-04-22T13:10:46;100553.50;;;14.53;100.00
54882;BME280;40775;51.448;4.742;2023-04-22T13:13:13;100552.59;;;14.45;100.00
54882;BME280;40775;51.448;4.742;2023-04-22T13:15:46;100549.03;;;14.42;100.00